sensor_id;sensor_type;location;lat;lon;timestamp;P1;durP1;ratioP1;P2;durP2;ratioP2
3278;SDS011;1651;50.940;6.888;2023-05-15T00:00:09;10.80;;;9.33;;
3278;SDS011;1651;50.940;6.888;2023-05-15T00:02:35;12.97;;;9.40;;
3278;SDS011;1651;50.940;6.888;2023-05-15T00:05:02;12.17;;;9.63;;
3278;SDS011;1651;50.940;6.888;2023-05-15T00:07:28;9.60;;;8.60;;
3278;SDS011;1651;50.940;6.888;2023-05-15T00:09:54;11.33;;;9.73;;
3278;SDS011;1651;50.940;6.888;2023-05-15T00:12:20;14.10;;;10.10;;
3278;SDS011;1651;50.940;6.888;2023-05-15T00:14:46;11.80;;;10.10;;
3278;SDS011;1651;50.940;6.888;2023-05-15T00:17:12;12.03;;;10.40;;
3278;SDS011;1651;50.940;6.888;2023-05-15T00:19:38;11.03;;;9.60;;
3278;SDS011;1651;50.940;6.888;2023-05-15T00:22:04;13.33;;;10.93;;
3278;SDS011;1651;50.940;6.888;2023-05-15T00:24:30;11.03;;;9.83;;
3278;SDS011;1651;50.940;6.888;2023-05-15T00:26:57;14.67;;;10.93;;
3278;SDS011;1651;50.940;6.888;2023-05-15T00:29:23;13.87;;;10.30;;
3278;SDS011;1651;50.940;6.888;2023-05-15T00:31:49;15.83;;;12.73;;
3278;SDS011;1651;50.940;6.888;2023-05-15T00:34:15;17.43;;;12.17;;
3278;SDS011;1651;50.940;6.888;2023-05-15T00:36:42;17.67;;;11.50;;
3278;SDS011;1651;50.940;6.888;2023-05-15T00:39:08;18.53;;;12.73;;
3278;SDS011;1651;50.940;6.888;2023-05-15T00:41:34;17.00;;;11.60;;
3278;SDS011;1651;50.940;6.888;2023-05-15T00:44:01;14.30;;;11.70;;
3278;SDS011;1651;50.940;6.888;2023-05-15T00:46:29;16.83;;;12.67;;
3278;SDS011;1651;50.940;6.888;2023-05-15T00:48:55;17.47;;;12.77;;
3278;SDS011;1651;50.940;6.888;2023-05-15T00:51:22;20.30;;;14.20;;
3278;SDS011;1651;50.940;6.888;2023-05-15T00:53:48;20.00;;;13.70;;
3278;SDS011;1651;50.940;6.888;2023-05-15T00:56:16;19.50;;;14.07;;
3278;SDS011;1651;50.940;6.888;2023-05-15T00:58:42;17.50;;;13.73;;
3278;SDS011;1651;50.940;6.888;2023-05-15T01:01:10;20.77;;;14.30;;
3278;SDS011;1651;50.940;6.888;2023-05-15T01:03:36;23.73;;;14.50;;
3278;SDS011;1651;50.940;6.888;2023-05-15T01:06:02;22.23;;;14.57;;
3278;SDS011;1651;50.940;6.888;2023-05-15T01:08:42;20.47;;;14.40;;
3278;SDS011;1651;50.940;6.888;2023-05-15T01:11:08;24.20;;;14.70;;
3278;SDS011;1651;50.940;6.888;2023-05-15T01:13:34;20.50;;;14.83;;
3278;SDS011;1651;50.940;6.888;2023-05-15T01:16:00;18.63;;;14.80;;
3278;SDS011;1651;50.940;6.888;2023-05-15T01:18:26;24.00;;;15.90;;
3278;SDS011;1651;50.940;6.888;2023-05-15T01:28:34;25.63;;;17.77;;
3278;SDS011;1651;50.940;6.888;2023-05-15T01:31:04;22.70;;;15.00;;
3278;SDS011;1651;50.940;6.888;2023-05-15T01:33:34;21.93;;;16.47;;
3278;SDS011;1651;50.940;6.888;2023-05-15T01:41:00;26.60;;;19.13;;
3278;SDS011;1651;50.940;6.888;2023-05-15T01:43:27;25.77;;;17.50;;
3278;SDS011;1651;50.940;6.888;2023-05-15T01:45:54;35.77;;;19.87;;
3278;SDS011;1651;50.940;6.888;2023-05-15T01:48:21;31.77;;;18.13;;
3278;SDS011;1651;50.940;6.888;2023-05-15T01:50:47;44.70;;;22.63;;
3278;SDS011;1651;50.940;6.888;2023-05-15T01:53:14;34.70;;;19.90;;
3278;SDS011;1651;50.940;6.888;2023-05-15T01:55:41;36.73;;;21.13;;
3278;SDS011;1651;50.940;6.888;2023-05-15T01:58:08;38.40;;;21.23;;
3278;SDS011;1651;50.940;6.888;2023-05-15T02:00:34;32.87;;;19.77;;
3278;SDS011;1651;50.940;6.888;2023-05-15T02:03:01;35.47;;;21.77;;
3278;SDS011;1651;50.940;6.888;2023-05-15T02:05:27;38.63;;;21.40;;
3278;SDS011;1651;50.940;6.888;2023-05-15T02:07:54;42.80;;;22.37;;
3278;SDS011;1651;50.940;6.888;2023-05-15T02:10:20;45.20;;;22.87;;
3278;SDS011;1651;50.940;6.888;2023-05-15T02:12:46;41.23;;;23.00;;
3278;SDS011;1651;50.940;6.888;2023-05-15T02:15:14;40.17;;;23.60;;
3278;SDS011;1651;50.940;6.888;2023-05-15T02:17:42;35.00;;;22.13;;
3278;SDS011;1651;50.940;6.888;2023-05-15T02:20:08;37.03;;;21.87;;
3278;SDS011;1651;50.940;6.888;2023-05-15T02:22:34;37.30;;;23.23;;
3278;SDS011;1651;50.940;6.888;2023-05-15T02:25:00;40.87;;;22.50;;
3278;SDS011;1651;50.940;6.888;2023-05-15T02:27:26;32.70;;;20.40;;
3278;SDS011;1651;50.940;6.888;2023-05-15T02:32:27;36.77;;;23.80;;
3278;SDS011;1651;50.940;6.888;2023-05-15T02:34:57;36.50;;;23.03;;
3278;SDS011;1651;50.940;6.888;2023-05-15T02:37:26;30.73;;;21.83;;
3278;SDS011;1651;50.940;6.888;2023-05-15T02:39:53;36.97;;;22.30;;
3278;SDS011;1651;50.940;6.888;2023-05-15T02:42:21;36.20;;;22.50;;
3278;SDS011;1651;50.940;6.888;2023-05-15T02:44:48;38.63;;;24.33;;
3278;SDS011;1651;50.940;6.888;2023-05-15T02:47:15;39.10;;;24.90;;
3278;SDS011;1651;50.940;6.888;2023-05-15T02:49:41;31.83;;;22.73;;
3278;SDS011;1651;50.940;6.888;2023-05-15T02:52:07;36.53;;;23.93;;
3278;SDS011;1651;50.940;6.888;2023-05-15T02:54:33;34.80;;;23.30;;
3278;SDS011;1651;50.940;6.888;2023-05-15T02:56:59;40.43;;;24.43;;
3278;SDS011;1651;50.940;6.888;2023-05-15T02:59:25;37.40;;;24.23;;
3278;SDS011;1651;50.940;6.888;2023-05-15T03:01:52;38.53;;;24.67;;
3278;SDS011;1651;50.940;6.888;2023-05-15T03:04:18;44.60;;;25.27;;
3278;SDS011;1651;50.940;6.888;2023-05-15T03:06:44;43.20;;;26.53;;
3278;SDS011;1651;50.940;6.888;2023-05-15T03:09:09;43.53;;;25.90;;
3278;SDS011;1651;50.940;6.888;2023-05-15T03:11:35;45.60;;;24.87;;
3278;SDS011;1651;50.940;6.888;2023-05-15T03:14:01;40.53;;;25.73;;
3278;SDS011;1651;50.940;6.888;2023-05-15T03:16:27;42.63;;;26.57;;
3278;SDS011;1651;50.940;6.888;2023-05-15T03:18:53;44.03;;;26.20;;
3278;SDS011;1651;50.940;6.888;2023-05-15T03:21:19;42.93;;;26.83;;
3278;SDS011;1651;50.940;6.888;2023-05-15T03:23:45;42.53;;;25.20;;
3278;SDS011;1651;50.940;6.888;2023-05-15T03:26:11;38.97;;;23.40;;
3278;SDS011;1651;50.940;6.888;2023-05-15T03:28:37;45.93;;;25.10;;
3278;SDS011;1651;50.940;6.888;2023-05-15T03:31:03;47.37;;;24.90;;
3278;SDS011;1651;50.940;6.888;2023-05-15T03:33:30;38.63;;;24.50;;
3278;SDS011;1651;50.940;6.888;2023-05-15T03:35:56;44.20;;;26.73;;
3278;SDS011;1651;50.940;6.888;2023-05-15T03:38:22;35.20;;;24.53;;
3278;SDS011;1651;50.940;6.888;2023-05-15T03:40:48;33.90;;;22.30;;
3278;SDS011;1651;50.940;6.888;2023-05-15T03:43:14;37.77;;;23.23;;
3278;SDS011;1651;50.940;6.888;2023-05-15T03:45:39;37.80;;;23.70;;
3278;SDS011;1651;50.940;6.888;2023-05-15T03:48:05;39.87;;;24.70;;
3278;SDS011;1651;50.940;6.888;2023-05-15T03:50:31;39.60;;;25.67;;
3278;SDS011;1651;50.940;6.888;2023-05-15T03:52:58;36.93;;;24.33;;
3278;SDS011;1651;50.940;6.888;2023-05-15T03:55:23;45.00;;;25.40;;
3278;SDS011;1651;50.940;6.888;2023-05-15T03:57:49;50.93;;;28.20;;
3278;SDS011;1651;50.940;6.888;2023-05-15T04:00:16;46.73;;;28.17;;
3278;SDS011;1651;50.940;6.888;2023-05-15T04:02:42;40.33;;;26.20;;
3278;SDS011;1651;50.940;6.888;2023-05-15T04:05:08;45.60;;;26.47;;
3278;SDS011;1651;50.940;6.888;2023-05-15T04:07:35;42.87;;;26.47;;
3278;SDS011;1651;50.940;6.888;2023-05-15T04:10:01;46.53;;;27.23;;
3278;SDS011;1651;50.940;6.888;2023-05-15T04:12:28;44.30;;;29.37;;
3278;SDS011;1651;50.940;6.888;2023-05-15T04:17:39;48.53;;;28.20;;
3278;SDS011;1651;50.940;6.888;2023-05-15T04:20:05;42.73;;;27.97;;
3278;SDS011;1651;50.940;6.888;2023-05-15T04:22:31;58.73;;;30.80;;
3278;SDS011;1651;50.940;6.888;2023-05-15T04:24:57;52.43;;;30.93;;
3278;SDS011;1651;50.940;6.888;2023-05-15T04:27:23;51.80;;;32.20;;
3278;SDS011;1651;50.940;6.888;2023-05-15T04:29:50;51.30;;;30.50;;
3278;SDS011;1651;50.940;6.888;2023-05-15T04:32:16;49.30;;;29.70;;
3278;SDS011;1651;50.940;6.888;2023-05-15T04:34:42;48.10;;;29.50;;
3278;SDS011;1651;50.940;6.888;2023-05-15T04:37:14;60.53;;;31.33;;
3278;SDS011;1651;50.940;6.888;2023-05-15T04:39:40;52.60;;;31.30;;
3278;SDS011;1651;50.940;6.888;2023-05-15T04:42:06;54.13;;;30.60;;
3278;SDS011;1651;50.940;6.888;2023-05-15T04:44:33;50.43;;;31.63;;
3278;SDS011;1651;50.940;6.888;2023-05-15T04:46:59;53.33;;;30.70;;
3278;SDS011;1651;50.940;6.888;2023-05-15T04:49:25;59.57;;;31.33;;
3278;SDS011;1651;50.940;6.888;2023-05-15T04:51:51;59.07;;;33.43;;
3278;SDS011;1651;50.940;6.888;2023-05-15T04:54:17;49.00;;;30.30;;
3278;SDS011;1651;50.940;6.888;2023-05-15T04:56:44;55.13;;;31.97;;
3278;SDS011;1651;50.940;6.888;2023-05-15T04:59:10;53.37;;;32.00;;
3278;SDS011;1651;50.940;6.888;2023-05-15T05:01:37;60.07;;;33.00;;
3278;SDS011;1651;50.940;6.888;2023-05-15T05:04:09;56.87;;;34.40;;
3278;SDS011;1651;50.940;6.888;2023-05-15T05:07:03;58.07;;;33.07;;
3278;SDS011;1651;50.940;6.888;2023-05-15T05:09:34;56.80;;;35.67;;
3278;SDS011;1651;50.940;6.888;2023-05-15T05:12:01;58.30;;;35.07;;
3278;SDS011;1651;50.940;6.888;2023-05-15T05:14:28;61.93;;;35.33;;
3278;SDS011;1651;50.940;6.888;2023-05-15T05:16:55;66.47;;;38.37;;
3278;SDS011;1651;50.940;6.888;2023-05-15T05:19:21;65.90;;;37.93;;
3278;SDS011;1651;50.940;6.888;2023-05-15T05:21:47;59.83;;;36.50;;
3278;SDS011;1651;50.940;6.888;2023-05-15T05:24:16;60.27;;;35.50;;
3278;SDS011;1651;50.940;6.888;2023-05-15T05:26:48;52.90;;;32.17;;
3278;SDS011;1651;50.940;6.888;2023-05-15T05:29:29;52.10;;;31.40;;
3278;SDS011;1651;50.940;6.888;2023-05-15T05:32:02;55.13;;;31.03;;
3278;SDS011;1651;50.940;6.888;2023-05-15T05:35:07;46.53;;;25.27;;
3278;SDS011;1651;50.940;6.888;2023-05-15T05:37:33;42.03;;;27.93;;
3278;SDS011;1651;50.940;6.888;2023-05-15T05:39:59;36.33;;;23.50;;
3278;SDS011;1651;50.940;6.888;2023-05-15T05:42:25;36.43;;;23.90;;
3278;SDS011;1651;50.940;6.888;2023-05-15T05:44:51;37.67;;;23.90;;
3278;SDS011;1651;50.940;6.888;2023-05-15T05:47:20;34.70;;;23.50;;
3278;SDS011;1651;50.940;6.888;2023-05-15T05:49:46;31.53;;;22.40;;
3278;SDS011;1651;50.940;6.888;2023-05-15T05:52:12;38.93;;;22.43;;
3278;SDS011;1651;50.940;6.888;2023-05-15T05:54:40;38.77;;;23.57;;
3278;SDS011;1651;50.940;6.888;2023-05-15T06:00:10;35.53;;;22.13;;
3278;SDS011;1651;50.940;6.888;2023-05-15T06:02:36;37.77;;;24.50;;
3278;SDS011;1651;50.940;6.888;2023-05-15T06:05:03;42.43;;;24.67;;
3278;SDS011;1651;50.940;6.888;2023-05-15T06:07:30;32.83;;;23.80;;
3278;SDS011;1651;50.940;6.888;2023-05-15T06:09:56;34.97;;;24.27;;
3278;SDS011;1651;50.940;6.888;2023-05-15T06:12:22;35.87;;;22.33;;
3278;SDS011;1651;50.940;6.888;2023-05-15T06:14:48;39.13;;;24.60;;
3278;SDS011;1651;50.940;6.888;2023-05-15T06:17:14;40.43;;;27.33;;
3278;SDS011;1651;50.940;6.888;2023-05-15T06:19:40;36.90;;;25.10;;
3278;SDS011;1651;50.940;6.888;2023-05-15T06:22:07;43.53;;;25.80;;
3278;SDS011;1651;50.940;6.888;2023-05-15T06:24:33;34.70;;;24.03;;
3278;SDS011;1651;50.940;6.888;2023-05-15T06:26:59;36.60;;;25.17;;
3278;SDS011;1651;50.940;6.888;2023-05-15T06:29:26;39.33;;;26.53;;
3278;SDS011;1651;50.940;6.888;2023-05-15T06:31:52;42.40;;;28.37;;
3278;SDS011;1651;50.940;6.888;2023-05-15T06:34:18;39.67;;;26.63;;
3278;SDS011;1651;50.940;6.888;2023-05-15T06:36:44;40.30;;;28.50;;
3278;SDS011;1651;50.940;6.888;2023-05-15T06:39:10;42.37;;;27.87;;
3278;SDS011;1651;50.940;6.888;2023-05-15T06:41:36;45.13;;;27.20;;
3278;SDS011;1651;50.940;6.888;2023-05-15T06:44:03;49.30;;;28.97;;
3278;SDS011;1651;50.940;6.888;2023-05-15T06:46:29;43.60;;;29.30;;
3278;SDS011;1651;50.940;6.888;2023-05-15T06:48:56;39.77;;;27.37;;
3278;SDS011;1651;50.940;6.888;2023-05-15T06:51:22;40.97;;;27.90;;
3278;SDS011;1651;50.940;6.888;2023-05-15T06:53:48;42.50;;;27.00;;
3278;SDS011;1651;50.940;6.888;2023-05-15T06:56:14;44.87;;;27.17;;
3278;SDS011;1651;50.940;6.888;2023-05-15T06:58:40;45.83;;;30.37;;
3278;SDS011;1651;50.940;6.888;2023-05-15T07:01:07;44.90;;;30.00;;
3278;SDS011;1651;50.940;6.888;2023-05-15T07:03:33;50.00;;;35.43;;
3278;SDS011;1651;50.940;6.888;2023-05-15T07:05:59;47.27;;;31.23;;
3278;SDS011;1651;50.940;6.888;2023-05-15T07:08:25;53.23;;;32.27;;
3278;SDS011;1651;50.940;6.888;2023-05-15T07:10:51;53.50;;;34.03;;
3278;SDS011;1651;50.940;6.888;2023-05-15T07:13:19;50.47;;;32.30;;
3278;SDS011;1651;50.940;6.888;2023-05-15T07:15:50;45.20;;;32.90;;
3278;SDS011;1651;50.940;6.888;2023-05-15T07:18:20;54.47;;;32.37;;
3278;SDS011;1651;50.940;6.888;2023-05-15T07:20:46;52.57;;;32.50;;
3278;SDS011;1651;50.940;6.888;2023-05-15T07:23:12;43.40;;;30.97;;
3278;SDS011;1651;50.940;6.888;2023-05-15T07:25:38;46.53;;;29.40;;
3278;SDS011;1651;50.940;6.888;2023-05-15T07:28:04;41.63;;;29.30;;
3278;SDS011;1651;50.940;6.888;2023-05-15T07:30:30;49.80;;;29.90;;
3278;SDS011;1651;50.940;6.888;2023-05-15T07:32:58;42.73;;;30.00;;
3278;SDS011;1651;50.940;6.888;2023-05-15T07:35:27;44.73;;;29.10;;
3278;SDS011;1651;50.940;6.888;2023-05-15T07:37:57;41.43;;;29.00;;
3278;SDS011;1651;50.940;6.888;2023-05-15T07:40:26;49.00;;;29.97;;
3278;SDS011;1651;50.940;6.888;2023-05-15T07:42:53;45.30;;;31.03;;
3278;SDS011;1651;50.940;6.888;2023-05-15T07:45:19;47.80;;;31.50;;
3278;SDS011;1651;50.940;6.888;2023-05-15T07:47:51;46.13;;;31.10;;
3278;SDS011;1651;50.940;6.888;2023-05-15T07:50:18;48.63;;;31.33;;
3278;SDS011;1651;50.940;6.888;2023-05-15T07:52:44;43.33;;;30.50;;
3278;SDS011;1651;50.940;6.888;2023-05-15T07:55:10;52.47;;;29.40;;
3278;SDS011;1651;50.940;6.888;2023-05-15T07:57:36;50.80;;;30.53;;
3278;SDS011;1651;50.940;6.888;2023-05-15T08:00:06;45.97;;;31.93;;
3278;SDS011;1651;50.940;6.888;2023-05-15T08:02:38;51.17;;;34.73;;
3278;SDS011;1651;50.940;6.888;2023-05-15T08:05:05;46.03;;;32.63;;
3278;SDS011;1651;50.940;6.888;2023-05-15T08:07:31;45.73;;;33.60;;
3278;SDS011;1651;50.940;6.888;2023-05-15T08:09:57;42.83;;;29.70;;
3278;SDS011;1651;50.940;6.888;2023-05-15T08:12:29;49.13;;;30.93;;
3278;SDS011;1651;50.940;6.888;2023-05-15T08:14:55;45.37;;;29.47;;
3278;SDS011;1651;50.940;6.888;2023-05-15T08:17:21;34.73;;;26.60;;
3278;SDS011;1651;50.940;6.888;2023-05-15T08:19:50;40.90;;;26.70;;
3278;SDS011;1651;50.940;6.888;2023-05-15T08:22:17;37.07;;;26.63;;
3278;SDS011;1651;50.940;6.888;2023-05-15T08:24:48;42.33;;;27.70;;
3278;SDS011;1651;50.940;6.888;2023-05-15T08:27:14;34.30;;;26.77;;
3278;SDS011;1651;50.940;6.888;2023-05-15T08:29:42;38.10;;;26.43;;
3278;SDS011;1651;50.940;6.888;2023-05-15T08:32:09;40.33;;;25.93;;
3278;SDS011;1651;50.940;6.888;2023-05-15T08:34:37;37.13;;;25.53;;
3278;SDS011;1651;50.940;6.888;2023-05-15T08:37:09;39.77;;;27.27;;
3278;SDS011;1651;50.940;6.888;2023-05-15T08:39:37;33.13;;;23.83;;
3278;SDS011;1651;50.940;6.888;2023-05-15T08:44:35;33.40;;;23.03;;
3278;SDS011;1651;50.940;6.888;2023-05-15T08:47:02;30.97;;;22.80;;
3278;SDS011;1651;50.940;6.888;2023-05-15T08:50:05;31.87;;;21.03;;
3278;SDS011;1651;50.940;6.888;2023-05-15T08:52:21;26.17;;;22.37;;
3278;SDS011;1651;50.940;6.888;2023-05-15T08:54:47;24.70;;;20.63;;
3278;SDS011;1651;50.940;6.888;2023-05-15T08:57:15;25.63;;;21.50;;
3278;SDS011;1651;50.940;6.888;2023-05-15T08:59:42;23.93;;;20.50;;
3278;SDS011;1651;50.940;6.888;2023-05-15T09:02:07;23.17;;;19.97;;
3278;SDS011;1651;50.940;6.888;2023-05-15T09:04:33;22.27;;;19.87;;
3278;SDS011;1651;50.940;6.888;2023-05-15T09:06:59;24.30;;;21.67;;
3278;SDS011;1651;50.940;6.888;2023-05-15T09:09:27;26.07;;;19.50;;
3278;SDS011;1651;50.940;6.888;2023-05-15T09:11:55;20.90;;;18.43;;
3278;SDS011;1651;50.940;6.888;2023-05-15T09:14:21;21.70;;;18.83;;
3278;SDS011;1651;50.940;6.888;2023-05-15T09:16:48;22.03;;;19.90;;
3278;SDS011;1651;50.940;6.888;2023-05-15T09:19:17;20.70;;;18.60;;
3278;SDS011;1651;50.940;6.888;2023-05-15T09:21:44;21.60;;;19.27;;
3278;SDS011;1651;50.940;6.888;2023-05-15T09:24:23;20.47;;;18.53;;
3278;SDS011;1651;50.940;6.888;2023-05-15T09:29:28;18.00;;;16.13;;
3278;SDS011;1651;50.940;6.888;2023-05-15T09:31:54;19.07;;;17.10;;
3278;SDS011;1651;50.940;6.888;2023-05-15T09:34:27;17.20;;;15.60;;
3278;SDS011;1651;50.940;6.888;2023-05-15T09:36:53;21.00;;;18.80;;
3278;SDS011;1651;50.940;6.888;2023-05-15T09:39:23;20.50;;;17.33;;
3278;SDS011;1651;50.940;6.888;2023-05-15T09:41:49;21.00;;;17.03;;
3278;SDS011;1651;50.940;6.888;2023-05-15T09:44:34;19.07;;;17.17;;
3278;SDS011;1651;50.940;6.888;2023-05-15T09:47:00;19.43;;;17.40;;
3278;SDS011;1651;50.940;6.888;2023-05-15T09:49:27;19.40;;;16.43;;
3278;SDS011;1651;50.940;6.888;2023-05-15T09:51:54;17.53;;;15.83;;
3278;SDS011;1651;50.940;6.888;2023-05-15T09:54:22;17.50;;;15.80;;
3278;SDS011;1651;50.940;6.888;2023-05-15T09:56:49;19.70;;;17.10;;
3278;SDS011;1651;50.940;6.888;2023-05-15T09:59:17;18.50;;;16.70;;
3278;SDS011;1651;50.940;6.888;2023-05-15T10:01:44;23.73;;;18.33;;
3278;SDS011;1651;50.940;6.888;2023-05-15T10:04:12;22.30;;;17.80;;
3278;SDS011;1651;50.940;6.888;2023-05-15T10:06:39;18.97;;;16.97;;
3278;SDS011;1651;50.940;6.888;2023-05-15T10:09:06;22.70;;;17.93;;
3278;SDS011;1651;50.940;6.888;2023-05-15T10:11:36;19.40;;;16.27;;
3278;SDS011;1651;50.940;6.888;2023-05-15T10:14:07;24.10;;;17.70;;
3278;SDS011;1651;50.940;6.888;2023-05-15T10:16:34;23.87;;;18.03;;
3278;SDS011;1651;50.940;6.888;2023-05-15T10:19:08;19.10;;;16.20;;
3278;SDS011;1651;50.940;6.888;2023-05-15T10:21:35;21.17;;;16.73;;
3278;SDS011;1651;50.940;6.888;2023-05-15T10:24:02;20.03;;;15.30;;
3278;SDS011;1651;50.940;6.888;2023-05-15T10:26:42;18.67;;;16.67;;
3278;SDS011;1651;50.940;6.888;2023-05-15T10:29:10;18.30;;;16.40;;
3278;SDS011;1651;50.940;6.888;2023-05-15T10:31:37;21.90;;;16.13;;
3278;SDS011;1651;50.940;6.888;2023-05-15T10:34:04;21.10;;;16.67;;
3278;SDS011;1651;50.940;6.888;2023-05-15T10:36:31;17.70;;;15.73;;
3278;SDS011;1651;50.940;6.888;2023-05-15T10:39:01;17.20;;;14.97;;
3278;SDS011;1651;50.940;6.888;2023-05-15T10:41:28;16.00;;;14.30;;
3278;SDS011;1651;50.940;6.888;2023-05-15T10:44:02;15.10;;;12.97;;
3278;SDS011;1651;50.940;6.888;2023-05-15T10:46:29;16.37;;;12.60;;
3278;SDS011;1651;50.940;6.888;2023-05-15T10:48:55;19.20;;;13.20;;
3278;SDS011;1651;50.940;6.888;2023-05-15T10:51:28;16.97;;;13.70;;
3278;SDS011;1651;50.940;6.888;2023-05-15T10:53:55;13.87;;;12.30;;
3278;SDS011;1651;50.940;6.888;2023-05-15T10:56:25;16.90;;;15.03;;
3278;SDS011;1651;50.940;6.888;2023-05-15T10:58:51;17.67;;;13.70;;
3278;SDS011;1651;50.940;6.888;2023-05-15T11:01:28;18.33;;;13.47;;
3278;SDS011;1651;50.940;6.888;2023-05-15T11:04:07;19.37;;;14.40;;
3278;SDS011;1651;50.940;6.888;2023-05-15T11:06:33;17.83;;;15.10;;
3278;SDS011;1651;50.940;6.888;2023-05-15T11:14:21;17.73;;;15.23;;
3278;SDS011;1651;50.940;6.888;2023-05-15T11:22:02;16.00;;;14.10;;
3278;SDS011;1651;50.940;6.888;2023-05-15T11:24:47;20.87;;;17.50;;
3278;SDS011;1651;50.940;6.888;2023-05-15T11:30:18;16.80;;;13.90;;
3278;SDS011;1651;50.940;6.888;2023-05-15T11:32:44;18.43;;;13.57;;
3278;SDS011;1651;50.940;6.888;2023-05-15T11:37:42;20.80;;;14.10;;
3278;SDS011;1651;50.940;6.888;2023-05-15T11:40:31;15.90;;;13.90;;
3278;SDS011;1651;50.940;6.888;2023-05-15T11:43:03;20.63;;;11.93;;
3278;SDS011;1651;50.940;6.888;2023-05-15T11:45:52;17.33;;;13.07;;
3278;SDS011;1651;50.940;6.888;2023-05-15T11:48:29;15.53;;;12.60;;
3278;SDS011;1651;50.940;6.888;2023-05-15T11:50:55;17.40;;;13.93;;
3278;SDS011;1651;50.940;6.888;2023-05-15T11:53:21;21.43;;;15.40;;
3278;SDS011;1651;50.940;6.888;2023-05-15T11:55:48;15.10;;;13.20;;
3278;SDS011;1651;50.940;6.888;2023-05-15T11:58:16;14.57;;;10.50;;
3278;SDS011;1651;50.940;6.888;2023-05-15T12:00:43;12.37;;;10.90;;
3278;SDS011;1651;50.940;6.888;2023-05-15T12:03:31;14.50;;;10.90;;
3278;SDS011;1651;50.940;6.888;2023-05-15T12:06:00;18.17;;;12.57;;
3278;SDS011;1651;50.940;6.888;2023-05-15T12:08:35;14.40;;;12.90;;
3278;SDS011;1651;50.940;6.888;2023-05-15T12:11:02;16.60;;;12.40;;
3278;SDS011;1651;50.940;6.888;2023-05-15T12:13:29;11.90;;;10.63;;
3278;SDS011;1651;50.940;6.888;2023-05-15T12:15:56;15.70;;;11.50;;
3278;SDS011;1651;50.940;6.888;2023-05-15T12:18:23;13.47;;;12.07;;
3278;SDS011;1651;50.940;6.888;2023-05-15T12:20:52;14.53;;;12.27;;
3278;SDS011;1651;50.940;6.888;2023-05-15T12:23:22;17.67;;;11.30;;
3278;SDS011;1651;50.940;6.888;2023-05-15T12:25:48;11.23;;;10.13;;
3278;SDS011;1651;50.940;6.888;2023-05-15T12:28:16;11.70;;;9.23;;
3278;SDS011;1651;50.940;6.888;2023-05-15T12:30:42;15.03;;;11.27;;
3278;SDS011;1651;50.940;6.888;2023-05-15T12:33:08;11.57;;;10.20;;
3278;SDS011;1651;50.940;6.888;2023-05-15T12:35:35;10.87;;;9.77;;
3278;SDS011;1651;50.940;6.888;2023-05-15T12:38:02;9.87;;;8.87;;
3278;SDS011;1651;50.940;6.888;2023-05-15T12:40:32;11.97;;;10.37;;
3278;SDS011;1651;50.940;6.888;2023-05-15T12:42:58;12.90;;;11.53;;
3278;SDS011;1651;50.940;6.888;2023-05-15T12:45:25;12.33;;;11.00;;
3278;SDS011;1651;50.940;6.888;2023-05-15T12:47:51;13.33;;;11.77;;
3278;SDS011;1651;50.940;6.888;2023-05-15T12:50:18;14.40;;;11.60;;
3278;SDS011;1651;50.940;6.888;2023-05-15T12:52:51;13.20;;;10.47;;
3278;SDS011;1651;50.940;6.888;2023-05-15T12:55:20;13.90;;;10.53;;
3278;SDS011;1651;50.940;6.888;2023-05-15T12:57:48;15.60;;;12.23;;
3278;SDS011;1651;50.940;6.888;2023-05-15T13:00:14;16.70;;;11.17;;
3278;SDS011;1651;50.940;6.888;2023-05-15T13:02:43;13.43;;;12.13;;
3278;SDS011;1651;50.940;6.888;2023-05-15T13:05:10;15.80;;;12.30;;
3278;SDS011;1651;50.940;6.888;2023-05-15T13:07:37;15.83;;;12.10;;
3278;SDS011;1651;50.940;6.888;2023-05-15T13:10:06;15.77;;;9.27;;
3278;SDS011;1651;50.940;6.888;2023-05-15T13:12:41;11.73;;;10.20;;
3278;SDS011;1651;50.940;6.888;2023-05-15T13:15:31;11.10;;;9.20;;
3278;SDS011;1651;50.940;6.888;2023-05-15T13:20:29;8.97;;;8.03;;
3278;SDS011;1651;50.940;6.888;2023-05-15T13:22:57;11.63;;;10.37;;
3278;SDS011;1651;50.940;6.888;2023-05-15T13:25:24;12.93;;;10.27;;
3278;SDS011;1651;50.940;6.888;2023-05-15T13:27:50;10.23;;;9.20;;
3278;SDS011;1651;50.940;6.888;2023-05-15T13:30:16;11.70;;;10.10;;
3278;SDS011;1651;50.940;6.888;2023-05-15T13:32:42;13.13;;;9.80;;
3278;SDS011;1651;50.940;6.888;2023-05-15T13:35:09;13.80;;;10.07;;
3278;SDS011;1651;50.940;6.888;2023-05-15T13:37:35;10.37;;;9.30;;
3278;SDS011;1651;50.940;6.888;2023-05-15T13:40:02;12.13;;;10.43;;
3278;SDS011;1651;50.940;6.888;2023-05-15T13:42:33;10.50;;;9.40;;
3278;SDS011;1651;50.940;6.888;2023-05-15T13:45:24;11.90;;;10.13;;
3278;SDS011;1651;50.940;6.888;2023-05-15T13:47:59;10.17;;;8.07;;
3278;SDS011;1651;50.940;6.888;2023-05-15T13:50:27;9.90;;;8.83;;
3278;SDS011;1651;50.940;6.888;2023-05-15T13:53:05;9.90;;;8.90;;
3278;SDS011;1651;50.940;6.888;2023-05-15T13:55:32;8.13;;;7.37;;
3278;SDS011;1651;50.940;6.888;2023-05-15T13:57:59;9.57;;;7.83;;
3278;SDS011;1651;50.940;6.888;2023-05-15T14:00:26;9.67;;;8.60;;
3278;SDS011;1651;50.940;6.888;2023-05-15T14:02:59;12.43;;;8.07;;
3278;SDS011;1651;50.940;6.888;2023-05-15T14:05:25;10.40;;;8.63;;
3278;SDS011;1651;50.940;6.888;2023-05-15T14:07:51;14.23;;;10.53;;
3278;SDS011;1651;50.940;6.888;2023-05-15T14:10:17;15.00;;;11.03;;
3278;SDS011;1651;50.940;6.888;2023-05-15T14:12:43;11.23;;;9.60;;
3278;SDS011;1651;50.940;6.888;2023-05-15T14:15:11;12.30;;;10.43;;
3278;SDS011;1651;50.940;6.888;2023-05-15T14:17:38;12.33;;;10.93;;
3278;SDS011;1651;50.940;6.888;2023-05-15T14:20:05;15.80;;;13.07;;
3278;SDS011;1651;50.940;6.888;2023-05-15T14:22:31;16.50;;;14.03;;
3278;SDS011;1651;50.940;6.888;2023-05-15T14:25:01;17.10;;;15.03;;
3278;SDS011;1651;50.940;6.888;2023-05-15T14:27:27;19.37;;;17.37;;
3278;SDS011;1651;50.940;6.888;2023-05-15T14:29:53;23.37;;;17.20;;
3278;SDS011;1651;50.940;6.888;2023-05-15T14:32:20;21.90;;;19.53;;
3278;SDS011;1651;50.940;6.888;2023-05-15T14:34:47;24.10;;;17.60;;
3278;SDS011;1651;50.940;6.888;2023-05-15T14:37:13;20.80;;;17.17;;
3278;SDS011;1651;50.940;6.888;2023-05-15T14:39:40;22.00;;;17.53;;
3278;SDS011;1651;50.940;6.888;2023-05-15T14:42:06;21.10;;;17.63;;
3278;SDS011;1651;50.940;6.888;2023-05-15T14:44:33;22.27;;;16.80;;
3278;SDS011;1651;50.940;6.888;2023-05-15T14:47:06;23.53;;;16.30;;
3278;SDS011;1651;50.940;6.888;2023-05-15T14:49:33;18.83;;;16.00;;
3278;SDS011;1651;50.940;6.888;2023-05-15T14:51:59;16.50;;;14.73;;
3278;SDS011;1651;50.940;6.888;2023-05-15T14:54:27;20.40;;;15.63;;
3278;SDS011;1651;50.940;6.888;2023-05-15T14:56:53;18.10;;;16.17;;
3278;SDS011;1651;50.940;6.888;2023-05-15T14:59:19;18.20;;;15.50;;
3278;SDS011;1651;50.940;6.888;2023-05-15T15:01:45;16.93;;;14.70;;
3278;SDS011;1651;50.940;6.888;2023-05-15T15:04:11;15.53;;;13.60;;
3278;SDS011;1651;50.940;6.888;2023-05-15T15:06:37;17.20;;;13.00;;
3278;SDS011;1651;50.940;6.888;2023-05-15T15:09:03;17.90;;;13.70;;
3278;SDS011;1651;50.940;6.888;2023-05-15T15:11:29;20.10;;;13.70;;
3278;SDS011;1651;50.940;6.888;2023-05-15T15:13:55;16.60;;;13.37;;
3278;SDS011;1651;50.940;6.888;2023-05-15T15:16:21;13.97;;;11.87;;
3278;SDS011;1651;50.940;6.888;2023-05-15T15:18:48;16.00;;;12.70;;
3278;SDS011;1651;50.940;6.888;2023-05-15T15:21:14;16.20;;;12.00;;
3278;SDS011;1651;50.940;6.888;2023-05-15T15:23:41;16.57;;;12.53;;
3278;SDS011;1651;50.940;6.888;2023-05-15T15:26:08;15.67;;;11.70;;
3278;SDS011;1651;50.940;6.888;2023-05-15T15:28:33;17.37;;;12.60;;
3278;SDS011;1651;50.940;6.888;2023-05-15T15:30:59;14.50;;;11.57;;
3278;SDS011;1651;50.940;6.888;2023-05-15T15:33:25;14.90;;;12.73;;
3278;SDS011;1651;50.940;6.888;2023-05-15T15:35:51;14.07;;;10.67;;